createdAt,value
2018-03-25T00:00:18.236Z,159559.75
2018-03-25T00:02:45.880Z,159507.03
2018-03-25T00:05:13.508Z,159495.33
2018-03-25T00:07:41.105Z,159488.84
2018-03-25T00:10:09.155Z,159514.20
2018-03-25T00:12:36.751Z,159546.75
2018-03-25T00:15:04.378Z,159544.09
2018-03-25T00:17:32.002Z,159541.52
2018-03-25T00:20:00.070Z,159529.81
2018-03-25T00:22:27.672Z,159531.09
2018-03-25T00:24:55.272Z,159655.39
2018-03-25T00:27:22.906Z,159595.53
2018-03-25T00:29:50.508Z,159544.09
2018-03-25T00:32:19.920Z,159507.03
2018-03-25T00:34:48.144Z,159498.61
2018-03-25T00:37:15.804Z,159645.63
2018-03-25T00:39:43.443Z,159700.25
2018-03-25T00:42:11.035Z,159666.41
2018-03-25T00:44:38.672Z,159706.78
2018-03-25T00:47:06.272Z,159722.39
2018-03-25T00:49:33.890Z,159715.91
2018-03-25T00:52:01.799Z,159622.84
2018-03-25T00:54:29.491Z,159490.14
2018-03-25T00:56:57.091Z,159436.14
2018-03-25T00:59:24.677Z,159500.56
2018-03-25T01:01:52.315Z,159434.19
2018-03-25T01:04:20.004Z,159427.72
2018-03-25T01:06:47.877Z,159421.19
2018-03-25T01:09:16.414Z,159466.72
2018-03-25T01:11:44.021Z,159543.45
2018-03-25T01:14:13.026Z,159511.61
2018-03-25T01:16:40.674Z,159473.91
2018-03-25T01:19:08.403Z,159589.66
2018-03-25T01:21:36.369Z,159624.78
2018-03-25T01:24:04.101Z,159645.63
2018-03-25T01:26:31.697Z,159635.20
2018-03-25T01:28:59.413Z,159645.63
2018-03-25T01:31:27.241Z,159647.56
2018-03-25T01:33:54.876Z,159590.30
2018-03-25T01:36:22.546Z,159494.03
2018-03-25T01:38:50.171Z,159619.61
2018-03-25T01:41:17.778Z,159525.91
2018-03-25T01:43:45.440Z,159513.56
2018-03-25T01:46:13.031Z,159467.37
2018-03-25T01:48:40.701Z,159516.80
2018-03-25T01:51:08.493Z,159468.03
2018-03-25T01:53:36.213Z,159497.97
2018-03-25T01:56:03.889Z,159559.11
2018-03-25T01:58:31.494Z,159544.75
2018-03-25T02:00:59.091Z,159508.97
2018-03-25T02:03:26.725Z,159508.97
2018-03-25T02:05:54.363Z,159542.16
2018-03-25T02:08:21.980Z,159464.13
2018-03-25T02:10:49.616Z,159390.66
2018-03-25T02:13:17.251Z,159444.61
2018-03-25T02:15:44.842Z,159418.59
2018-03-25T02:18:12.496Z,159499.27
2018-03-25T02:20:41.078Z,159563.64
2018-03-25T02:23:09.058Z,159412.72
2018-03-25T02:25:36.650Z,159455.66
2018-03-25T02:28:04.242Z,159413.42
2018-03-25T02:30:31.908Z,159328.20
2018-03-25T02:32:59.531Z,159431.61
2018-03-25T02:35:27.135Z,159510.31
2018-03-25T02:37:55.120Z,159505.73
2018-03-25T02:40:22.739Z,159541.52
2018-03-25T02:42:50.346Z,159564.94
2018-03-25T02:45:18.000Z,159518.73
2018-03-25T02:47:46.028Z,159435.48
2018-03-25T02:50:14.038Z,159434.19
2018-03-25T02:52:41.714Z,159523.97
2018-03-25T02:55:09.450Z,159636.50
2018-03-25T02:57:37.269Z,159620.25
2018-03-25T03:00:05.034Z,159705.50
2018-03-25T03:02:32.756Z,159704.84
2018-03-25T03:05:00.346Z,159668.41
2018-03-25T03:07:27.980Z,159644.33
2018-03-25T03:09:55.622Z,159675.53
2018-03-25T03:12:23.214Z,159724.34
2018-03-25T03:14:50.895Z,159832.39
2018-03-25T03:17:18.524Z,159832.39
2018-03-25T03:19:46.132Z,159842.17
2018-03-25T03:22:13.822Z,159784.87
2018-03-25T03:24:41.433Z,159749.72
2018-03-25T03:27:09.022Z,159792.05
2018-03-25T03:29:37.156Z,159831.75
2018-03-25T03:32:04.832Z,159838.92
2018-03-25T03:34:32.606Z,159906.61
2018-03-25T03:37:00.222Z,159958.75
2018-03-25T03:39:27.963Z,159950.91
2018-03-25T03:41:55.715Z,159983.48
2018-03-25T03:44:23.316Z,159979.55
2018-03-25T03:46:51.359Z,160019.31
2018-03-25T03:49:18.972Z,159965.22
2018-03-25T03:51:46.567Z,159937.25
2018-03-25T03:54:14.232Z,159914.44
2018-03-25T03:56:41.982Z,159965.88
2018-03-25T03:59:09.574Z,160003.66
2018-03-25T04:01:37.205Z,160034.94
2018-03-25T04:04:04.914Z,160095.52
2018-03-25T04:06:32.547Z,160090.92
2018-03-25T04:09:00.150Z,160123.52
2018-03-25T04:11:28.149Z,160163.91
2018-03-25T04:13:55.928Z,160122.88
2018-03-25T04:16:23.602Z,160143.09
2018-03-25T04:18:51.273Z,160135.25
2018-03-25T04:21:18.945Z,160137.84
2018-03-25T04:23:46.696Z,160127.41
2018-03-25T04:26:14.404Z,160099.41
2018-03-25T04:28:42.184Z,160130.70
2018-03-25T04:31:09.854Z,160149.56
2018-03-25T04:33:37.533Z,160103.31
2018-03-25T04:36:05.134Z,160146.33
2018-03-25T04:38:32.886Z,160107.25
2018-03-25T04:41:00.665Z,160104.00
2018-03-25T04:43:28.259Z,160128.77
2018-03-25T04:45:56.096Z,160112.44
2018-03-25T04:48:23.898Z,160093.58
2018-03-25T04:50:51.571Z,160068.17
2018-03-25T04:53:19.239Z,160097.47
2018-03-25T04:55:46.924Z,160102.66
2018-03-25T04:58:14.805Z,160077.91
2018-03-25T05:00:42.472Z,160059.03
2018-03-25T05:03:10.254Z,160086.39
2018-03-25T05:05:38.037Z,160047.31
2018-03-25T05:08:05.695Z,160066.17
2018-03-25T05:10:33.477Z,160098.11
2018-03-25T05:13:01.226Z,160052.50
2018-03-25T05:15:28.893Z,160039.47
2018-03-25T05:17:56.616Z,160089.63
2018-03-25T05:20:24.290Z,160050.55
2018-03-25T05:22:51.874Z,160107.25
2018-03-25T05:25:19.608Z,160092.92
2018-03-25T05:27:47.312Z,160059.03
2018-03-25T05:30:14.986Z,160029.05
2018-03-25T05:32:42.664Z,160090.28
2018-03-25T05:35:10.393Z,160066.17
2018-03-25T05:37:38.227Z,160040.13
2018-03-25T05:40:05.827Z,160050.55
2018-03-25T05:42:33.562Z,160040.13
2018-03-25T05:45:01.355Z,159982.84
2018-03-25T05:47:29.023Z,160058.39
2018-03-25T05:49:56.810Z,160104.00
2018-03-25T05:52:24.996Z,160017.97
2018-03-25T05:54:52.663Z,160051.84
2018-03-25T05:57:20.248Z,160079.91
2018-03-25T05:59:47.919Z,160081.19
2018-03-25T06:02:15.593Z,160089.63
2018-03-25T06:04:43.372Z,160002.34
2018-03-25T06:07:11.041Z,160084.44
2018-03-25T06:09:38.779Z,160111.14
2018-03-25T06:12:06.445Z,160083.78
2018-03-25T06:14:34.168Z,160124.17
2018-03-25T06:17:01.750Z,160119.62
2018-03-25T06:19:29.431Z,160120.92
2018-03-25T06:21:57.100Z,160167.19
2018-03-25T06:24:24.886Z,160151.53
2018-03-25T06:26:52.763Z,160247.97
2018-03-25T06:29:20.422Z,160257.75
2018-03-25T06:31:48.214Z,160287.13
2018-03-25T06:34:16.472Z,160334.72
2018-03-25T06:36:44.136Z,160318.38
2018-03-25T06:39:11.751Z,160370.58
2018-03-25T06:41:39.803Z,160364.03
2018-03-25T06:44:07.498Z,160364.69
2018-03-25T06:46:35.291Z,160416.23
2018-03-25T06:49:03.171Z,160427.31
2018-03-25T06:51:30.955Z,160365.33
2018-03-25T06:53:58.677Z,160371.27
2018-03-25T06:56:26.505Z,160305.34
2018-03-25T06:58:54.178Z,160535.59
2018-03-25T07:01:21.959Z,160562.97
2018-03-25T07:03:49.840Z,160551.88
2018-03-25T07:06:17.432Z,160505.61
2018-03-25T07:08:45.190Z,160595.61
2018-03-25T07:11:12.850Z,160617.80
2018-03-25T07:13:40.642Z,160549.94
2018-03-25T07:16:08.422Z,160678.47
2018-03-25T07:18:36.199Z,160660.19
2018-03-25T07:21:03.873Z,160639.98
2018-03-25T07:23:31.653Z,160704.56
2018-03-25T07:25:59.436Z,160697.38
2018-03-25T07:28:27.159Z,160811.63
2018-03-25T07:30:54.874Z,160718.27
2018-03-25T07:33:22.617Z,160801.81
2018-03-25T07:35:50.444Z,160756.12
2018-03-25T07:38:18.116Z,160724.17
2018-03-25T07:40:45.784Z,160736.56
2018-03-25T07:43:13.781Z,160648.44
2018-03-25T07:45:41.499Z,160842.92
2018-03-25T07:48:09.229Z,160944.17
2018-03-25T07:50:36.901Z,160944.17
2018-03-25T07:53:04.989Z,161006.91
2018-03-25T07:55:32.716Z,161008.84
2018-03-25T07:58:00.430Z,161006.25
2018-03-25T08:00:28.629Z,161055.89
2018-03-25T08:02:56.221Z,161048.69
2018-03-25T08:05:23.810Z,161065.05
2018-03-25T08:07:51.444Z,161165.64
2018-03-25T08:10:19.273Z,161007.56
2018-03-25T08:12:48.028Z,161031.06
2018-03-25T08:15:15.677Z,160893.89
2018-03-25T08:17:43.482Z,161056.53
2018-03-25T08:20:11.156Z,160984.64
2018-03-25T08:22:38.818Z,161101.63
2018-03-25T08:25:06.509Z,161012.11
2018-03-25T08:27:34.562Z,160972.23
2018-03-25T08:30:02.373Z,161190.47
2018-03-25T08:32:30.047Z,161217.25
2018-03-25T08:34:57.782Z,161181.31
2018-03-25T08:37:25.388Z,161014.70
2018-03-25T08:39:53.416Z,161381.34
2018-03-25T08:42:21.164Z,161441.50
2018-03-25T08:44:49.242Z,161188.52
2018-03-25T08:47:17.016Z,161404.22
2018-03-25T08:49:44.801Z,161439.48
2018-03-25T08:52:12.531Z,161490.58
2018-03-25T08:54:40.182Z,161465.03
2018-03-25T08:57:08.148Z,161421.86
2018-03-25T08:59:35.811Z,161494.50
2018-03-25T09:02:03.584Z,161466.98
2018-03-25T09:04:31.256Z,161330.31
2018-03-25T09:06:58.937Z,161202.88
2018-03-25T09:09:26.562Z,161499.70
2018-03-25T09:11:54.281Z,161586.03
2018-03-25T09:14:22.169Z,161589.98
2018-03-25T09:16:49.949Z,161583.42
2018-03-25T09:19:17.725Z,161409.44
2018-03-25T09:21:45.416Z,161287.19
2018-03-25T09:24:13.047Z,161229.02
2018-03-25T09:26:40.753Z,161345.38
2018-03-25T09:29:08.402Z,161275.42
2018-03-25T09:31:36.053Z,161371.52
2018-03-25T09:34:03.707Z,161365.61
2018-03-25T09:36:31.316Z,161499.70
2018-03-25T09:38:58.915Z,161576.25
2018-03-25T09:41:26.579Z,161599.81
2018-03-25T09:43:54.194Z,161579.52
2018-03-25T09:46:21.808Z,161760.75
2018-03-25T09:48:49.448Z,161696.63
2018-03-25T09:51:17.098Z,161868.75
2018-03-25T09:53:44.701Z,161870.05
2018-03-25T09:56:12.351Z,161912.63
2018-03-25T09:58:40.090Z,162213.23
2018-03-25T10:01:13.335Z,161886.44
2018-03-25T10:03:40.989Z,162015.44
2018-03-25T10:06:08.625Z,162145.75
2018-03-25T10:08:36.299Z,162143.78
2018-03-25T10:11:03.938Z,162035.72
2018-03-25T10:13:31.710Z,162051.47
2018-03-25T10:15:59.376Z,162063.91
2018-03-25T10:18:27.064Z,162021.31
2018-03-25T10:20:54.650Z,162144.44
2018-03-25T10:23:22.244Z,162087.48
2018-03-25T10:25:49.980Z,162057.33
2018-03-25T10:28:17.725Z,162289.94
2018-03-25T10:30:45.736Z,162168.67
2018-03-25T10:33:13.525Z,161907.41
2018-03-25T10:35:41.197Z,162207.31
2018-03-25T10:38:08.902Z,162234.88
2018-03-25T10:40:36.640Z,162098.58
2018-03-25T10:43:04.251Z,162158.19
2018-03-25T10:45:32.003Z,162119.55
2018-03-25T10:47:59.780Z,162261.78
2018-03-25T10:50:27.375Z,162060.59
2018-03-25T10:52:54.993Z,162123.52
2018-03-25T10:55:22.695Z,161944.72
2018-03-25T10:57:50.483Z,161919.19
2018-03-25T11:00:18.262Z,162053.42
2018-03-25T11:02:45.851Z,162034.41
2018-03-25T11:05:13.511Z,162057.33
2018-03-25T11:07:41.167Z,162036.37
2018-03-25T11:10:09.269Z,162092.70
2018-03-25T11:12:37.048Z,162134.59
2018-03-25T11:15:04.719Z,162082.22
2018-03-25T11:17:32.499Z,161974.17
2018-03-25T11:20:00.103Z,162080.92
2018-03-25T11:22:27.815Z,162173.94
2018-03-25T11:24:55.684Z,161984.66
2018-03-25T11:27:23.512Z,161963.03
2018-03-25T11:29:51.291Z,161987.25
2018-03-25T11:32:18.881Z,162164.11
2018-03-25T11:34:46.636Z,161961.72
2018-03-25T11:37:14.422Z,161951.91
2018-03-25T11:39:42.195Z,162176.56
2018-03-25T11:42:10.075Z,162094.66
2018-03-25T11:44:38.261Z,162114.98
2018-03-25T11:47:06.037Z,162149.70
2018-03-25T11:49:33.814Z,162186.39
2018-03-25T11:52:01.479Z,162030.50
2018-03-25T11:54:29.071Z,162138.56
2018-03-25T11:56:56.844Z,162151.66
2018-03-25T11:59:24.728Z,162110.38
2018-03-25T12:01:52.327Z,161943.42
2018-03-25T12:04:19.983Z,161940.11
2018-03-25T12:06:48.061Z,162227.64
2018-03-25T12:09:15.730Z,162335.81
2018-03-25T12:11:43.515Z,162230.25
2018-03-25T12:14:11.177Z,162315.48
2018-03-25T12:16:38.815Z,162335.81
2018-03-25T12:19:06.433Z,162327.28
2018-03-25T12:21:34.108Z,162219.11
2018-03-25T12:24:01.704Z,162190.95
2018-03-25T12:26:29.356Z,162328.59
2018-03-25T12:28:57.093Z,162226.34
2018-03-25T12:31:24.703Z,162043.59
2018-03-25T12:33:52.384Z,162116.94
2018-03-25T12:36:20.167Z,162298.47
2018-03-25T12:38:47.758Z,162119.55
2018-03-25T12:41:15.782Z,161972.20
2018-03-25T12:43:43.383Z,162221.78
2018-03-25T12:46:10.973Z,162107.11
2018-03-25T12:48:38.847Z,162147.05
2018-03-25T12:53:40.550Z,162228.95
2018-03-25T12:56:08.333Z,162369.91
2018-03-25T12:58:36.045Z,162321.41
2018-03-25T13:01:03.882Z,162215.20
2018-03-25T13:03:31.470Z,161965.03
2018-03-25T13:05:59.119Z,162175.25
2018-03-25T13:08:26.710Z,162084.17
2018-03-25T13:10:54.483Z,161958.47
2018-03-25T13:13:22.564Z,162183.73
2018-03-25T13:15:50.325Z,162037.02
2018-03-25T13:18:18.079Z,162292.55
2018-03-25T13:20:45.870Z,162266.34
2018-03-25T13:23:13.682Z,162166.72
2018-03-25T13:25:41.868Z,162179.81
2018-03-25T13:28:09.546Z,162067.17
2018-03-25T13:30:37.208Z,161973.52
2018-03-25T13:33:04.954Z,161984.66
2018-03-25T13:35:32.776Z,161939.45
2018-03-25T13:38:00.512Z,161872.66
2018-03-25T13:40:28.328Z,161943.42
2018-03-25T13:42:55.997Z,162030.50
2018-03-25T13:45:23.738Z,162032.45
2018-03-25T13:47:51.738Z,161963.03
2018-03-25T13:50:19.544Z,161962.38
2018-03-25T13:52:47.222Z,161967.64
2018-03-25T13:55:15.103Z,161937.50
2018-03-25T13:57:42.819Z,161915.94
2018-03-25T14:00:10.439Z,161883.84
2018-03-25T14:02:38.227Z,161879.28
2018-03-25T14:05:06.106Z,161853.66
2018-03-25T14:07:33.836Z,161847.78
2018-03-25T14:10:01.629Z,161854.31
2018-03-25T14:12:29.439Z,161828.78
2018-03-25T14:14:57.220Z,161709.06
2018-03-25T14:17:24.830Z,161641.66
2018-03-25T14:19:52.980Z,161645.56
2018-03-25T14:22:20.578Z,161648.22
2018-03-25T14:24:48.304Z,161620.70
2018-03-25T14:27:16.111Z,161591.28
2018-03-25T14:29:43.889Z,161591.28
2018-03-25T14:32:11.728Z,161582.13
2018-03-25T14:34:39.440Z,161602.41
2018-03-25T14:37:07.219Z,161599.81
2018-03-25T14:39:34.890Z,161480.11
2018-03-25T14:42:02.773Z,161557.92
2018-03-25T14:44:30.450Z,161548.09
2018-03-25T14:46:58.174Z,161610.23
2018-03-25T14:49:26.007Z,161576.91
2018-03-25T14:51:53.783Z,161628.58
2018-03-25T14:54:21.449Z,161661.95
2018-03-25T14:56:49.341Z,161683.50
2018-03-25T14:59:17.119Z,161634.44
2018-03-25T15:01:44.788Z,161684.86
2018-03-25T15:04:12.520Z,161675.69
2018-03-25T15:06:40.140Z,161652.13
2018-03-25T15:09:08.232Z,161631.19
2018-03-25T15:11:35.901Z,161633.78
2018-03-25T15:14:03.736Z,161634.44
2018-03-25T15:16:31.459Z,161654.73
2018-03-25T15:18:59.046Z,161663.25
2018-03-25T15:21:26.915Z,161667.81
2018-03-25T15:23:54.502Z,161643.61
2018-03-25T15:26:22.100Z,161675.03
2018-03-25T15:28:49.945Z,161686.16
2018-03-25T15:31:17.612Z,161640.34
2018-03-25T15:33:45.296Z,161630.53
2018-03-25T15:36:14.270Z,161616.80
2018-03-25T15:38:42.025Z,161589.98
2018-03-25T15:41:09.751Z,161618.75
2018-03-25T15:43:37.419Z,161603.72
2018-03-25T15:46:05.058Z,161591.94
2018-03-25T15:48:32.731Z,161621.36
2018-03-25T15:51:00.393Z,161647.52
2018-03-25T15:53:28.024Z,161606.33
2018-03-25T15:55:55.805Z,161650.17
2018-03-25T15:58:23.584Z,161673.08
2018-03-25T16:00:51.359Z,161656.69
2018-03-25T16:03:19.141Z,161650.17
2018-03-25T16:05:46.812Z,161637.09
2018-03-25T16:08:14.489Z,161599.16
2018-03-25T16:10:42.219Z,161644.25
2018-03-25T16:13:10.353Z,161601.11
2018-03-25T16:15:38.020Z,161618.09
2018-03-25T16:18:05.685Z,161608.94
2018-03-25T16:20:33.684Z,161595.84
2018-03-25T16:23:01.294Z,161596.50
2018-03-25T16:25:28.991Z,161597.81
2018-03-25T16:27:56.686Z,161591.94
2018-03-25T16:30:24.496Z,161601.11
2018-03-25T16:32:52.217Z,161571.00
2018-03-25T16:35:19.863Z,161538.98
2018-03-25T16:37:48.033Z,161507.56
2018-03-25T16:40:15.770Z,161503.66
2018-03-25T16:42:43.363Z,161483.37
2018-03-25T16:45:11.100Z,161507.56
2018-03-25T16:47:38.941Z,161504.97
2018-03-25T16:50:06.720Z,161465.69
2018-03-25T16:52:34.391Z,161446.70
2018-03-25T16:55:02.340Z,161423.81
2018-03-25T16:57:29.947Z,161440.14
2018-03-25T16:59:57.729Z,161449.95
2018-03-25T17:02:25.913Z,161431.03
2018-03-25T17:04:53.634Z,161403.53
2018-03-25T17:07:21.264Z,161424.47
2018-03-25T17:09:48.940Z,161415.30
2018-03-25T17:12:16.714Z,161377.38
2018-03-25T17:14:44.388Z,161363.02
2018-03-25T17:17:12.275Z,161334.27
2018-03-25T17:19:39.940Z,161315.94
2018-03-25T17:22:07.621Z,161279.33
2018-03-25T17:24:35.247Z,161268.88
2018-03-25T17:27:03.077Z,161236.88
2018-03-25T17:29:30.857Z,161206.14
2018-03-25T17:31:58.633Z,161209.44
2018-03-25T17:34:26.411Z,161179.36
2018-03-25T17:36:54.088Z,161168.91
2018-03-25T17:39:21.915Z,161163.03
2018-03-25T17:41:49.640Z,161170.20
2018-03-25T17:44:17.214Z,161146.02
2018-03-25T17:46:44.889Z,161140.16
2018-03-25T17:49:12.666Z,161138.22
2018-03-25T17:51:40.398Z,161112.73
2018-03-25T17:54:08.019Z,161108.12
2018-03-25T17:56:35.610Z,161115.98
2018-03-25T17:59:03.362Z,161104.22
2018-03-25T18:01:31.148Z,161098.97
2018-03-25T18:03:58.925Z,161112.09
2018-03-25T18:06:27.112Z,161082.02
2018-03-25T18:08:54.840Z,161074.81
2018-03-25T18:11:22.568Z,161048.03
2018-03-25T18:13:50.449Z,161015.41
2018-03-25T18:16:18.123Z,161013.41
2018-03-25T18:18:45.902Z,161017.36
2018-03-25T18:21:13.577Z,161025.81
2018-03-25T18:23:41.260Z,160997.75
2018-03-25T18:26:09.018Z,161007.56
2018-03-25T18:28:36.775Z,161004.95
2018-03-25T18:31:04.540Z,160993.19
2018-03-25T18:33:32.156Z,160978.78
2018-03-25T18:35:59.833Z,160974.19
2018-03-25T18:38:27.719Z,160976.12
2018-03-25T18:40:55.492Z,160961.13
2018-03-25T18:43:23.220Z,160951.33
2018-03-25T18:45:50.950Z,160939.56
2018-03-25T18:48:18.720Z,160948.06
2018-03-25T18:50:46.398Z,160931.77
2018-03-25T18:53:14.178Z,160933.06
2018-03-25T18:55:42.139Z,160913.45
2018-03-25T18:58:09.822Z,160891.25
2018-03-25T19:00:37.615Z,160897.80
2018-03-25T19:03:05.390Z,160880.14
2018-03-25T19:05:33.122Z,160882.14
2018-03-25T19:08:00.841Z,160903.66
2018-03-25T19:10:28.604Z,160871.69
2018-03-25T19:12:59.134Z,160855.33
2018-03-25T19:15:27.144Z,160830.53
2018-03-25T19:17:54.752Z,160813.58
2018-03-25T19:20:22.425Z,160816.17
2018-03-25T19:22:50.175Z,160794.63
2018-03-25T19:25:17.902Z,160793.97
2018-03-25T19:27:45.573Z,160786.81
2018-03-25T19:30:13.306Z,160781.56
2018-03-25T19:32:41.025Z,160771.13
2018-03-25T19:35:08.655Z,160748.97
2018-03-25T19:37:36.433Z,160720.22
2018-03-25T19:40:04.314Z,160724.81
2018-03-25T19:42:32.091Z,160731.31
2018-03-25T19:44:59.835Z,160708.47
2018-03-25T19:47:27.545Z,160680.44
2018-03-25T19:49:55.180Z,160664.12
2018-03-25T19:52:22.892Z,160674.58
2018-03-25T20:08:10.292Z,160626.28
2018-03-25T20:10:37.966Z,160623.64
2018-03-25T20:13:05.635Z,160634.09
2018-03-25T20:15:33.315Z,160651.08
2018-03-25T20:18:01.098Z,160623.64
2018-03-25T20:20:28.880Z,160636.69
2018-03-25T20:22:56.537Z,160636.69
2018-03-25T20:25:24.219Z,160631.48
2018-03-25T20:27:52.007Z,160617.80
2018-03-25T20:30:19.786Z,160621.69
2018-03-25T20:32:47.769Z,160602.80
2018-03-25T20:35:15.444Z,160591.06
2018-03-25T20:37:43.223Z,160568.22
2018-03-25T20:40:10.998Z,160572.77
2018-03-25T20:42:38.662Z,160576.02
2018-03-25T20:45:06.452Z,160564.27
2018-03-25T20:47:34.125Z,160553.88
2018-03-25T20:50:02.013Z,160539.48
2018-03-25T20:52:29.675Z,160521.25
2018-03-25T20:54:57.346Z,160525.14
2018-03-25T20:57:24.998Z,160504.95
2018-03-25T20:59:52.608Z,160463.19
2018-03-25T21:02:20.230Z,160463.84
2018-03-25T21:04:47.922Z,160465.78
2018-03-25T21:07:15.627Z,160468.44
2018-03-25T21:09:43.415Z,160454.69
2018-03-25T21:12:11.087Z,160445.59
2018-03-25T21:14:38.867Z,160424.06
2018-03-25T21:17:06.644Z,160418.17
2018-03-25T21:19:34.316Z,160392.75
2018-03-25T21:22:02.099Z,160390.16
2018-03-25T21:24:29.927Z,160360.78
2018-03-25T21:26:57.759Z,160355.53
2018-03-25T21:29:25.538Z,160332.72
2018-03-25T21:31:53.217Z,160318.38
2018-03-25T21:34:20.879Z,160281.22
2018-03-25T21:36:48.829Z,160282.53
2018-03-25T21:39:16.436Z,160242.13
2018-03-25T21:41:44.075Z,160226.50
2018-03-25T21:44:11.792Z,160157.41
2018-03-25T21:46:39.866Z,160193.91
2018-03-25T21:49:07.657Z,160160.00
2018-03-25T21:51:35.264Z,160169.14
2018-03-25T21:54:02.899Z,160132.66
2018-03-25T21:56:30.685Z,160152.17
2018-03-25T21:58:58.278Z,160176.28
2018-03-25T22:01:26.033Z,160186.72
2018-03-25T22:03:53.791Z,160156.77
2018-03-25T22:06:21.557Z,160150.87
2018-03-25T22:08:49.569Z,160141.13
2018-03-25T22:11:17.154Z,160154.81
2018-03-25T22:13:44.747Z,160142.44
2018-03-25T22:16:12.500Z,160141.78
2018-03-25T22:18:52.054Z,160126.77
2018-03-25T22:21:19.732Z,160135.25
2018-03-25T22:23:47.403Z,160104.66
2018-03-25T22:26:15.071Z,160114.38
2018-03-25T22:28:42.742Z,160065.52
2018-03-25T22:31:10.430Z,160020.61
2018-03-25T22:33:38.617Z,159982.14
2018-03-25T22:36:06.293Z,159935.30
2018-03-25T22:38:34.018Z,159958.05
2018-03-25T22:41:01.750Z,159872.75
2018-03-25T22:43:29.525Z,159849.34
2018-03-25T22:45:57.190Z,159881.22
2018-03-25T22:48:24.981Z,159917.69
2018-03-25T22:50:52.761Z,159910.55
2018-03-25T22:53:20.495Z,159851.30
2018-03-25T22:55:48.211Z,159797.23
2018-03-25T22:58:15.878Z,159814.84
2018-03-25T23:00:43.768Z,159812.19
2018-03-25T23:03:11.437Z,159792.05
2018-03-25T23:05:39.220Z,159790.75
2018-03-25T23:08:06.945Z,159805.72
2018-03-25T23:10:35.082Z,159792.70
2018-03-25T23:13:02.864Z,159744.53
2018-03-25T23:15:30.531Z,159706.78
2018-03-25T23:17:58.190Z,159742.59
2018-03-25T23:20:25.990Z,159774.45
2018-03-25T23:22:53.666Z,159725.64
2018-03-25T23:25:21.289Z,159723.03
2018-03-25T23:27:49.007Z,159691.14
2018-03-25T23:30:16.598Z,159661.22
2018-03-25T23:32:44.207Z,159661.22
2018-03-25T23:35:12.400Z,159744.53
2018-03-25T23:37:40.230Z,159747.13
2018-03-25T23:40:08.008Z,159725.64
2018-03-25T23:42:35.785Z,159684.66
2018-03-25T23:45:03.449Z,159691.83
2018-03-25T23:47:31.126Z,159674.23
2018-03-25T23:49:58.816Z,159673.59
2018-03-25T23:52:26.489Z,159681.41
2018-03-25T23:54:54.171Z,159663.17
2018-03-25T23:57:22.046Z,159646.92
2018-03-25T23:59:49.722Z,159639.75
